sensor_id;sensor_type;location;lat;lon;timestamp;temperature;humidity
15184;DHT22;7693;49.266;7.104;2024-03-06T00:02:11;4.20;99.90
15184;DHT22;7693;49.266;7.104;2024-03-06T06:01:02;2.70;99.90
15184;DHT22;7693;49.266;7.104;2024-03-06T06:03:29;2.70;99.90
15184;DHT22;7693;49.266;7.104;2024-03-06T06:05:56;2.80;99.90
15184;DHT22;7693;49.266;7.104;2024-03-06T06:08:22;2.80;99.90
15184;DHT22;7693;49.266;7.104;2024-03-06T06:10:47;2.90;99.90
15184;DHT22;7693;49.266;7.104;2024-03-06T06:13:13;2.90;99.90
15184;DHT22;7693;49.266;7.104;2024-03-06T06:15:40;3.00;99.90
15184;DHT22;7693;49.266;7.104;2024-03-06T06:18:06;3.00;99.90
15184;DHT22;7693;49.266;7.104;2024-03-06T06:20:32;3.00;99.90
15184;DHT22;7693;49.266;7.104;2024-03-06T06:22:58;3.00;99.90
15184;DHT22;7693;49.266;7.104;2024-03-06T06:25:23;3.10;99.90
15184;DHT22;7693;49.266;7.104;2024-03-06T06:27:49;3.10;99.90
15184;DHT22;7693;49.266;7.104;2024-03-06T06:30:16;3.20;99.90
15184;DHT22;7693;49.266;7.104;2024-03-06T06:32:42;3.20;99.90
15184;DHT22;7693;49.266;7.104;2024-03-06T06:35:09;3.20;99.90
15184;DHT22;7693;49.266;7.104;2024-03-06T06:37:35;3.30;99.90
15184;DHT22;7693;49.266;7.104;2024-03-06T06:40:02;3.20;99.90
15184;DHT22;7693;49.266;7.104;2024-03-06T06:42:32;3.30;99.90
15184;DHT22;7693;49.266;7.104;2024-03-06T06:44:59;3.40;99.90
15184;DHT22;7693;49.266;7.104;2024-03-06T06:47:28;3.40;99.90
15184;DHT22;7693;49.266;7.104;2024-03-06T06:49:53;3.50;99.90
15184;DHT22;7693;49.266;7.104;2024-03-06T06:52:19;3.50;99.90
15184;DHT22;7693;49.266;7.104;2024-03-06T06:54:44;3.50;99.90
15184;DHT22;7693;49.266;7.104;2024-03-06T06:57:10;3.50;99.90
15184;DHT22;7693;49.266;7.104;2024-03-06T06:59:36;3.60;99.90
15184;DHT22;7693;49.266;7.104;2024-03-06T07:02:02;3.60;99.90
15184;DHT22;7693;49.266;7.104;2024-03-06T07:04:28;3.60;99.90
15184;DHT22;7693;49.266;7.104;2024-03-06T07:06:53;3.70;99.90
15184;DHT22;7693;49.266;7.104;2024-03-06T07:09:19;3.70;99.90
15184;DHT22;7693;49.266;7.104;2024-03-06T07:11:45;3.70;99.90
15184;DHT22;7693;49.266;7.104;2024-03-06T07:14:14;3.80;99.90
15184;DHT22;7693;49.266;7.104;2024-03-06T07:16:43;3.80;99.90
15184;DHT22;7693;49.266;7.104;2024-03-06T07:19:09;3.90;99.90
15184;DHT22;7693;49.266;7.104;2024-03-06T07:21:35;3.90;99.90
15184;DHT22;7693;49.266;7.104;2024-03-06T07:24:01;4.00;99.90
15184;DHT22;7693;49.266;7.104;2024-03-06T07:26:27;4.00;99.90
15184;DHT22;7693;49.266;7.104;2024-03-06T07:28:55;4.10;99.90
15184;DHT22;7693;49.266;7.104;2024-03-06T07:31:21;4.10;99.90
15184;DHT22;7693;49.266;7.104;2024-03-06T07:33:46;4.10;99.90
15184;DHT22;7693;49.266;7.104;2024-03-06T07:36:12;4.20;99.90
15184;DHT22;7693;49.266;7.104;2024-03-06T07:38:38;4.20;99.90
15184;DHT22;7693;49.266;7.104;2024-03-06T07:41:03;4.30;99.90
15184;DHT22;7693;49.266;7.104;2024-03-06T07:43:29;4.30;99.90
15184;DHT22;7693;49.266;7.104;2024-03-06T07:45:55;4.30;99.90
15184;DHT22;7693;49.266;7.104;2024-03-06T07:48:21;4.40;99.90
15184;DHT22;7693;49.266;7.104;2024-03-06T07:50:46;4.40;99.90
15184;DHT22;7693;49.266;7.104;2024-03-06T07:53:12;4.50;99.90
15184;DHT22;7693;49.266;7.104;2024-03-06T07:55:37;4.60;99.90
15184;DHT22;7693;49.266;7.104;2024-03-06T07:58:04;4.60;99.90
15184;DHT22;7693;49.266;7.104;2024-03-06T08:00:30;4.70;99.90
15184;DHT22;7693;49.266;7.104;2024-03-06T08:02:57;4.90;99.90
15184;DHT22;7693;49.266;7.104;2024-03-06T08:05:22;5.00;99.90
15184;DHT22;7693;49.266;7.104;2024-03-06T08:07:48;5.00;99.90
15184;DHT22;7693;49.266;7.104;2024-03-06T08:10:14;5.10;99.90
15184;DHT22;7693;49.266;7.104;2024-03-06T08:12:43;5.20;99.90
15184;DHT22;7693;49.266;7.104;2024-03-06T08:15:13;5.30;99.90
15184;DHT22;7693;49.266;7.104;2024-03-06T08:17:40;5.30;99.90
15184;DHT22;7693;49.266;7.104;2024-03-06T08:20:08;5.40;99.90
15184;DHT22;7693;49.266;7.104;2024-03-06T08:22:36;5.60;99.90
15184;DHT22;7693;49.266;7.104;2024-03-06T08:25:09;5.70;99.90
15184;DHT22;7693;49.266;7.104;2024-03-06T08:27:35;5.80;99.90
15184;DHT22;7693;49.266;7.104;2024-03-06T08:30:02;5.80;99.90
15184;DHT22;7693;49.266;7.104;2024-03-06T08:32:30;5.90;99.90
15184;DHT22;7693;49.266;7.104;2024-03-06T08:34:56;6.00;99.90
15184;DHT22;7693;49.266;7.104;2024-03-06T08:37:22;6.10;99.90
15184;DHT22;7693;49.266;7.104;2024-03-06T08:39:48;6.10;99.90
15184;DHT22;7693;49.266;7.104;2024-03-06T08:42:14;6.10;99.90
15184;DHT22;7693;49.266;7.104;2024-03-06T08:44:44;6.10;99.90
15184;DHT22;7693;49.266;7.104;2024-03-06T08:47:09;6.00;99.90
15184;DHT22;7693;49.266;7.104;2024-03-06T08:49:35;6.00;99.90
15184;DHT22;7693;49.266;7.104;2024-03-06T08:52:00;6.00;99.90
15184;DHT22;7693;49.266;7.104;2024-03-06T08:54:26;6.00;99.90
15184;DHT22;7693;49.266;7.104;2024-03-06T08:56:52;6.00;99.90
15184;DHT22;7693;49.266;7.104;2024-03-06T08:59:23;6.10;99.90
15184;DHT22;7693;49.266;7.104;2024-03-06T09:01:53;6.10;99.90
15184;DHT22;7693;49.266;7.104;2024-03-06T09:04:19;6.20;99.90
15184;DHT22;7693;49.266;7.104;2024-03-06T09:06:45;6.30;99.90
15184;DHT22;7693;49.266;7.104;2024-03-06T09:09:10;6.40;99.90
15184;DHT22;7693;49.266;7.104;2024-03-06T09:11:43;6.40;99.90
15184;DHT22;7693;49.266;7.104;2024-03-06T09:14:09;6.50;99.90
15184;DHT22;7693;49.266;7.104;2024-03-06T09:16:35;6.50;99.90
15184;DHT22;7693;49.266;7.104;2024-03-06T09:19:01;6.60;99.90
15184;DHT22;7693;49.266;7.104;2024-03-06T09:21:27;6.70;99.90
15184;DHT22;7693;49.266;7.104;2024-03-06T09:23:53;6.70;99.90
15184;DHT22;7693;49.266;7.104;2024-03-06T09:26:19;6.80;99.90
15184;DHT22;7693;49.266;7.104;2024-03-06T09:28:46;6.90;99.90
15184;DHT22;7693;49.266;7.104;2024-03-06T09:31:11;6.90;99.90
15184;DHT22;7693;49.266;7.104;2024-03-06T09:33:39;7.00;99.90
15184;DHT22;7693;49.266;7.104;2024-03-06T09:36:05;7.00;99.90
15184;DHT22;7693;49.266;7.104;2024-03-06T09:38:31;7.00;99.90
15184;DHT22;7693;49.266;7.104;2024-03-06T09:40:57;7.10;99.90
15184;DHT22;7693;49.266;7.104;2024-03-06T09:43:22;7.20;99.90
15184;DHT22;7693;49.266;7.104;2024-03-06T09:45:50;7.20;99.90
15184;DHT22;7693;49.266;7.104;2024-03-06T09:48:20;7.30;99.90
15184;DHT22;7693;49.266;7.104;2024-03-06T09:50:46;7.40;99.90
15184;DHT22;7693;49.266;7.104;2024-03-06T09:53:15;7.50;99.90
15184;DHT22;7693;49.266;7.104;2024-03-06T09:55:42;7.60;99.90
15184;DHT22;7693;49.266;7.104;2024-03-06T09:58:08;7.70;99.90
15184;DHT22;7693;49.266;7.104;2024-03-06T10:00:37;7.80;99.90
15184;DHT22;7693;49.266;7.104;2024-03-06T10:03:03;7.90;99.90
15184;DHT22;7693;49.266;7.104;2024-03-06T10:05:34;8.00;99.90
15184;DHT22;7693;49.266;7.104;2024-03-06T10:08:03;8.20;99.90
15184;DHT22;7693;49.266;7.104;2024-03-06T10:10:30;8.30;99.90
15184;DHT22;7693;49.266;7.104;2024-03-06T10:12:56;8.40;99.90
15184;DHT22;7693;49.266;7.104;2024-03-06T10:15:26;8.50;99.90
15184;DHT22;7693;49.266;7.104;2024-03-06T10:18:14;8.60;99.90
15184;DHT22;7693;49.266;7.104;2024-03-06T10:20:41;8.60;99.90
15184;DHT22;7693;49.266;7.104;2024-03-06T10:23:10;8.70;99.90
15184;DHT22;7693;49.266;7.104;2024-03-06T10:25:36;8.70;99.90
15184;DHT22;7693;49.266;7.104;2024-03-06T10:28:10;8.80;99.90
15184;DHT22;7693;49.266;7.104;2024-03-06T10:30:37;9.00;99.90
15184;DHT22;7693;49.266;7.104;2024-03-06T10:33:04;9.10;99.90
15184;DHT22;7693;49.266;7.104;2024-03-06T10:35:36;9.10;99.90
15184;DHT22;7693;49.266;7.104;2024-03-06T10:38:04;9.10;99.90
15184;DHT22;7693;49.266;7.104;2024-03-06T10:40:37;9.10;99.90
15184;DHT22;7693;49.266;7.104;2024-03-06T10:43:04;9.10;99.90
15184;DHT22;7693;49.266;7.104;2024-03-06T10:45:47;9.20;99.90
15184;DHT22;7693;49.266;7.104;2024-03-06T10:48:14;9.30;99.90
15184;DHT22;7693;49.266;7.104;2024-03-06T10:50:41;9.30;99.90
15184;DHT22;7693;49.266;7.104;2024-03-06T10:53:18;9.30;99.90
15184;DHT22;7693;49.266;7.104;2024-03-06T10:55:44;9.50;99.90
15184;DHT22;7693;49.266;7.104;2024-03-06T10:58:11;9.60;99.90
15184;DHT22;7693;49.266;7.104;2024-03-06T11:00:44;9.80;99.90
15184;DHT22;7693;49.266;7.104;2024-03-06T11:03:14;10.00;99.90
15184;DHT22;7693;49.266;7.104;2024-03-06T11:05:43;10.00;99.90
15184;DHT22;7693;49.266;7.104;2024-03-06T11:08:12;10.10;99.90
15184;DHT22;7693;49.266;7.104;2024-03-06T11:10:40;10.20;99.90
15184;DHT22;7693;49.266;7.104;2024-03-06T11:13:42;10.20;99.90
15184;DHT22;7693;49.266;7.104;2024-03-06T11:16:02;10.10;99.90
15184;DHT22;7693;49.266;7.104;2024-03-06T13:20:10;10.20;99.90
15184;DHT22;7693;49.266;7.104;2024-03-06T13:22:37;10.20;99.90
15184;DHT22;7693;49.266;7.104;2024-03-06T13:25:03;10.20;99.90
15184;DHT22;7693;49.266;7.104;2024-03-06T13:27:30;10.20;99.90
15184;DHT22;7693;49.266;7.104;2024-03-06T13:29:56;10.20;99.90
15184;DHT22;7693;49.266;7.104;2024-03-06T13:32:22;10.20;99.90
15184;DHT22;7693;49.266;7.104;2024-03-06T13:34:48;10.30;99.90
15184;DHT22;7693;49.266;7.104;2024-03-06T13:37:14;10.30;99.90
15184;DHT22;7693;49.266;7.104;2024-03-06T13:39:40;10.40;99.90
15184;DHT22;7693;49.266;7.104;2024-03-06T13:42:06;10.30;99.90
15184;DHT22;7693;49.266;7.104;2024-03-06T13:44:35;10.30;99.90
15184;DHT22;7693;49.266;7.104;2024-03-06T13:47:00;10.30;99.90
15184;DHT22;7693;49.266;7.104;2024-03-06T13:49:40;10.30;99.90
15184;DHT22;7693;49.266;7.104;2024-03-06T13:52:07;10.30;99.90
15184;DHT22;7693;49.266;7.104;2024-03-06T13:54:37;10.30;99.90
15184;DHT22;7693;49.266;7.104;2024-03-06T13:57:03;10.40;99.90
15184;DHT22;7693;49.266;7.104;2024-03-06T13:59:30;10.40;99.90
15184;DHT22;7693;49.266;7.104;2024-03-06T14:01:56;10.40;99.90
15184;DHT22;7693;49.266;7.104;2024-03-06T14:04:22;10.50;99.90
15184;DHT22;7693;49.266;7.104;2024-03-06T14:06:49;10.50;99.90
15184;DHT22;7693;49.266;7.104;2024-03-06T14:09:15;10.50;99.90
15184;DHT22;7693;49.266;7.104;2024-03-06T14:11:41;10.50;99.90
15184;DHT22;7693;49.266;7.104;2024-03-06T14:14:07;10.60;99.90
15184;DHT22;7693;49.266;7.104;2024-03-06T14:16:34;10.60;99.90
15184;DHT22;7693;49.266;7.104;2024-03-06T14:19:00;10.70;99.90
15184;DHT22;7693;49.266;7.104;2024-03-06T14:21:25;10.70;99.90
15184;DHT22;7693;49.266;7.104;2024-03-06T14:23:51;10.70;99.90
15184;DHT22;7693;49.266;7.104;2024-03-06T14:26:17;10.70;99.90
15184;DHT22;7693;49.266;7.104;2024-03-06T14:28:42;10.70;99.90
15184;DHT22;7693;49.266;7.104;2024-03-06T14:31:08;10.70;99.90
15184;DHT22;7693;49.266;7.104;2024-03-06T14:33:39;10.60;99.90
15184;DHT22;7693;49.266;7.104;2024-03-06T14:36:05;10.60;99.90
15184;DHT22;7693;49.266;7.104;2024-03-06T14:38:30;10.60;99.90
15184;DHT22;7693;49.266;7.104;2024-03-06T14:40:56;10.60;99.90
15184;DHT22;7693;49.266;7.104;2024-03-06T14:43:21;10.70;99.90
15184;DHT22;7693;49.266;7.104;2024-03-06T14:45:47;10.70;99.90
15184;DHT22;7693;49.266;7.104;2024-03-06T14:48:13;10.60;99.90
15184;DHT22;7693;49.266;7.104;2024-03-06T14:50:38;10.60;99.90
15184;DHT22;7693;49.266;7.104;2024-03-06T14:53:04;10.60;99.90
15184;DHT22;7693;49.266;7.104;2024-03-06T14:55:31;10.60;99.90
15184;DHT22;7693;49.266;7.104;2024-03-06T14:57:56;10.60;99.90
15184;DHT22;7693;49.266;7.104;2024-03-06T15:00:22;10.60;99.90
15184;DHT22;7693;49.266;7.104;2024-03-06T15:02:48;10.60;99.90
15184;DHT22;7693;49.266;7.104;2024-03-06T15:05:14;10.70;99.90
15184;DHT22;7693;49.266;7.104;2024-03-06T15:07:40;10.60;99.90
15184;DHT22;7693;49.266;7.104;2024-03-06T15:10:06;10.60;99.90
15184;DHT22;7693;49.266;7.104;2024-03-06T15:12:34;10.60;99.90
15184;DHT22;7693;49.266;7.104;2024-03-06T15:15:03;10.60;99.90
15184;DHT22;7693;49.266;7.104;2024-03-06T15:17:32;10.70;99.90
15184;DHT22;7693;49.266;7.104;2024-03-06T15:19:58;10.60;99.90
15184;DHT22;7693;49.266;7.104;2024-03-06T15:22:24;10.60;99.90
15184;DHT22;7693;49.266;7.104;2024-03-06T15:24:50;10.60;99.90
15184;DHT22;7693;49.266;7.104;2024-03-06T15:27:18;10.50;99.90
15184;DHT22;7693;49.266;7.104;2024-03-06T15:29:44;10.50;99.90
15184;DHT22;7693;49.266;7.104;2024-03-06T15:32:10;10.40;99.90
15184;DHT22;7693;49.266;7.104;2024-03-06T15:34:36;10.30;99.90
15184;DHT22;7693;49.266;7.104;2024-03-06T15:37:02;10.30;99.90
15184;DHT22;7693;49.266;7.104;2024-03-06T15:39:28;10.30;99.90
15184;DHT22;7693;49.266;7.104;2024-03-06T15:41:54;10.20;99.90
15184;DHT22;7693;49.266;7.104;2024-03-06T15:44:21;10.20;99.90
15184;DHT22;7693;49.266;7.104;2024-03-06T15:46:46;10.10;99.90
15184;DHT22;7693;49.266;7.104;2024-03-06T15:49:23;10.10;99.90
15184;DHT22;7693;49.266;7.104;2024-03-06T15:51:51;10.10;99.90
15184;DHT22;7693;49.266;7.104;2024-03-06T15:54:18;10.10;99.90
15184;DHT22;7693;49.266;7.104;2024-03-06T15:56:44;10.10;99.90
15184;DHT22;7693;49.266;7.104;2024-03-06T15:59:10;10.00;99.90
15184;DHT22;7693;49.266;7.104;2024-03-06T16:01:35;10.00;99.90
15184;DHT22;7693;49.266;7.104;2024-03-06T16:04:01;10.00;99.90
15184;DHT22;7693;49.266;7.104;2024-03-06T16:06:27;10.10;99.90
15184;DHT22;7693;49.266;7.104;2024-03-06T16:08:53;10.00;99.90
15184;DHT22;7693;49.266;7.104;2024-03-06T16:11:19;10.00;99.90
15184;DHT22;7693;49.266;7.104;2024-03-06T16:13:45;10.00;99.90
15184;DHT22;7693;49.266;7.104;2024-03-06T16:16:10;10.00;99.90
15184;DHT22;7693;49.266;7.104;2024-03-06T16:18:36;10.00;99.90
15184;DHT22;7693;49.266;7.104;2024-03-06T16:21:02;10.00;99.90
15184;DHT22;7693;49.266;7.104;2024-03-06T16:23:27;10.00;99.90
15184;DHT22;7693;49.266;7.104;2024-03-06T16:25:54;9.90;99.90
15184;DHT22;7693;49.266;7.104;2024-03-06T16:28:19;9.90;99.90
15184;DHT22;7693;49.266;7.104;2024-03-06T16:30:47;9.90;99.90
15184;DHT22;7693;49.266;7.104;2024-03-06T16:33:12;9.80;99.90
15184;DHT22;7693;49.266;7.104;2024-03-06T16:35:38;9.90;99.90
15184;DHT22;7693;49.266;7.104;2024-03-06T16:38:04;9.80;99.90
15184;DHT22;7693;49.266;7.104;2024-03-06T16:40:29;9.80;99.90
15184;DHT22;7693;49.266;7.104;2024-03-06T16:42:55;9.80;99.90
15184;DHT22;7693;49.266;7.104;2024-03-06T16:45:21;9.80;99.90
15184;DHT22;7693;49.266;7.104;2024-03-06T16:47:47;9.80;99.90
15184;DHT22;7693;49.266;7.104;2024-03-06T16:50:12;9.80;99.90
15184;DHT22;7693;49.266;7.104;2024-03-06T16:52:38;9.80;99.90
15184;DHT22;7693;49.266;7.104;2024-03-06T16:55:05;9.70;99.90
15184;DHT22;7693;49.266;7.104;2024-03-06T16:57:31;9.70;99.90
15184;DHT22;7693;49.266;7.104;2024-03-06T16:59:56;9.70;99.90
15184;DHT22;7693;49.266;7.104;2024-03-06T17:02:22;9.60;99.90
15184;DHT22;7693;49.266;7.104;2024-03-06T17:04:47;9.60;99.90
15184;DHT22;7693;49.266;7.104;2024-03-06T17:07:13;9.60;99.90
15184;DHT22;7693;49.266;7.104;2024-03-06T17:09:39;9.60;99.90
15184;DHT22;7693;49.266;7.104;2024-03-06T17:12:08;9.50;99.90
15184;DHT22;7693;49.266;7.104;2024-03-06T17:14:34;9.50;99.90
15184;DHT22;7693;49.266;7.104;2024-03-06T17:17:00;9.40;99.90
15184;DHT22;7693;49.266;7.104;2024-03-06T17:19:25;9.40;99.90
15184;DHT22;7693;49.266;7.104;2024-03-06T17:21:51;9.40;99.90
15184;DHT22;7693;49.266;7.104;2024-03-06T17:24:16;9.30;99.90
15184;DHT22;7693;49.266;7.104;2024-03-06T17:26:42;9.30;99.90
15184;DHT22;7693;49.266;7.104;2024-03-06T17:29:08;9.20;99.90
15184;DHT22;7693;49.266;7.104;2024-03-06T17:31:34;9.20;99.90
15184;DHT22;7693;49.266;7.104;2024-03-06T17:34:03;9.20;99.90
15184;DHT22;7693;49.266;7.104;2024-03-06T17:36:29;9.20;99.90
15184;DHT22;7693;49.266;7.104;2024-03-06T17:38:55;9.10;99.90
15184;DHT22;7693;49.266;7.104;2024-03-06T17:41:23;9.10;99.90
15184;DHT22;7693;49.266;7.104;2024-03-06T17:43:49;9.00;99.90
15184;DHT22;7693;49.266;7.104;2024-03-06T17:46:14;8.90;99.90
15184;DHT22;7693;49.266;7.104;2024-03-06T17:48:40;8.90;99.90
15184;DHT22;7693;49.266;7.104;2024-03-06T17:51:06;8.90;99.90
15184;DHT22;7693;49.266;7.104;2024-03-06T17:53:32;8.80;99.90
15184;DHT22;7693;49.266;7.104;2024-03-06T17:55:58;8.80;99.90
15184;DHT22;7693;49.266;7.104;2024-03-06T17:58:25;8.70;99.90
15184;DHT22;7693;49.266;7.104;2024-03-06T18:00:50;8.70;99.90
15184;DHT22;7693;49.266;7.104;2024-03-06T18:03:16;8.70;99.90
15184;DHT22;7693;49.266;7.104;2024-03-06T18:05:44;8.70;99.90
15184;DHT22;7693;49.266;7.104;2024-03-06T18:08:09;8.70;99.90
15184;DHT22;7693;49.266;7.104;2024-03-06T18:10:35;8.70;99.90
15184;DHT22;7693;49.266;7.104;2024-03-06T18:13:02;8.70;99.90
15184;DHT22;7693;49.266;7.104;2024-03-06T18:15:28;8.70;99.90
15184;DHT22;7693;49.266;7.104;2024-03-06T18:17:54;8.70;99.90
15184;DHT22;7693;49.266;7.104;2024-03-06T18:20:20;8.70;99.90
15184;DHT22;7693;49.266;7.104;2024-03-06T18:22:46;8.70;99.90
15184;DHT22;7693;49.266;7.104;2024-03-06T18:25:12;8.70;99.90
15184;DHT22;7693;49.266;7.104;2024-03-06T18:27:38;8.70;99.90
15184;DHT22;7693;49.266;7.104;2024-03-06T18:30:04;8.70;99.90
15184;DHT22;7693;49.266;7.104;2024-03-06T18:32:30;8.60;99.90
15184;DHT22;7693;49.266;7.104;2024-03-06T18:34:56;8.60;99.90
15184;DHT22;7693;49.266;7.104;2024-03-06T18:37:23;8.50;99.90
15184;DHT22;7693;49.266;7.104;2024-03-06T18:39:50;8.50;99.90
15184;DHT22;7693;49.266;7.104;2024-03-06T18:42:15;8.40;99.90
15184;DHT22;7693;49.266;7.104;2024-03-06T18:44:41;8.40;99.90
15184;DHT22;7693;49.266;7.104;2024-03-06T18:47:07;8.30;99.90
15184;DHT22;7693;49.266;7.104;2024-03-06T18:49:33;8.30;99.90
15184;DHT22;7693;49.266;7.104;2024-03-06T18:51:58;8.20;99.90
15184;DHT22;7693;49.266;7.104;2024-03-06T18:54:27;8.20;99.90
15184;DHT22;7693;49.266;7.104;2024-03-06T18:56:53;8.10;99.90
15184;DHT22;7693;49.266;7.104;2024-03-06T18:59:19;8.10;99.90
15184;DHT22;7693;49.266;7.104;2024-03-06T19:01:45;8.10;99.90
15184;DHT22;7693;49.266;7.104;2024-03-06T19:04:14;8.10;99.90
15184;DHT22;7693;49.266;7.104;2024-03-06T19:06:45;8.10;99.90
15184;DHT22;7693;49.266;7.104;2024-03-06T19:09:12;8.10;99.90
15184;DHT22;7693;49.266;7.104;2024-03-06T19:11:38;8.10;99.90
15184;DHT22;7693;49.266;7.104;2024-03-06T19:14:05;8.10;99.90
15184;DHT22;7693;49.266;7.104;2024-03-06T19:16:31;8.00;99.90
15184;DHT22;7693;49.266;7.104;2024-03-06T19:18:57;8.00;99.90
15184;DHT22;7693;49.266;7.104;2024-03-06T19:21:23;8.00;99.90
15184;DHT22;7693;49.266;7.104;2024-03-06T19:23:50;7.90;99.90
15184;DHT22;7693;49.266;7.104;2024-03-06T19:26:15;7.90;99.90
15184;DHT22;7693;49.266;7.104;2024-03-06T19:28:42;7.80;99.90
15184;DHT22;7693;49.266;7.104;2024-03-06T19:31:08;7.80;99.90
15184;DHT22;7693;49.266;7.104;2024-03-06T19:33:34;7.70;99.90
15184;DHT22;7693;49.266;7.104;2024-03-06T19:36:00;7.70;99.90
15184;DHT22;7693;49.266;7.104;2024-03-06T19:38:25;7.70;99.90
15184;DHT22;7693;49.266;7.104;2024-03-06T19:40:52;7.60;99.90
15184;DHT22;7693;49.266;7.104;2024-03-06T19:43:19;7.60;99.90
15184;DHT22;7693;49.266;7.104;2024-03-06T19:45:45;7.60;99.90
15184;DHT22;7693;49.266;7.104;2024-03-06T19:48:10;7.60;99.90
15184;DHT22;7693;49.266;7.104;2024-03-06T19:50:36;7.60;99.90
15184;DHT22;7693;49.266;7.104;2024-03-06T19:53:03;7.60;99.90
15184;DHT22;7693;49.266;7.104;2024-03-06T19:55:28;7.60;99.90
15184;DHT22;7693;49.266;7.104;2024-03-06T19:57:57;7.60;99.90
15184;DHT22;7693;49.266;7.104;2024-03-06T20:00:22;7.50;99.90
15184;DHT22;7693;49.266;7.104;2024-03-06T20:02:48;7.50;99.90
15184;DHT22;7693;49.266;7.104;2024-03-06T20:05:15;7.50;99.90
15184;DHT22;7693;49.266;7.104;2024-03-06T20:07:40;7.50;99.90
15184;DHT22;7693;49.266;7.104;2024-03-06T20:10:06;7.50;99.90
15184;DHT22;7693;49.266;7.104;2024-03-06T20:12:33;7.50;99.90
15184;DHT22;7693;49.266;7.104;2024-03-06T20:14:59;7.50;99.90
15184;DHT22;7693;49.266;7.104;2024-03-06T20:17:25;7.50;99.90
15184;DHT22;7693;49.266;7.104;2024-03-06T20:19:51;7.50;99.90
15184;DHT22;7693;49.266;7.104;2024-03-06T20:22:17;7.50;99.90
15184;DHT22;7693;49.266;7.104;2024-03-06T20:24:42;7.50;99.90
15184;DHT22;7693;49.266;7.104;2024-03-06T20:27:08;7.50;99.90
15184;DHT22;7693;49.266;7.104;2024-03-06T20:29:34;7.50;99.90
15184;DHT22;7693;49.266;7.104;2024-03-06T20:31:59;7.50;99.90
15184;DHT22;7693;49.266;7.104;2024-03-06T20:34:25;7.50;99.90
15184;DHT22;7693;49.266;7.104;2024-03-06T20:36:51;7.50;99.90
15184;DHT22;7693;49.266;7.104;2024-03-06T20:39:17;7.50;99.90
15184;DHT22;7693;49.266;7.104;2024-03-06T20:41:43;7.50;99.90
15184;DHT22;7693;49.266;7.104;2024-03-06T20:44:09;7.50;99.90
15184;DHT22;7693;49.266;7.104;2024-03-06T20:46:35;7.50;99.90
15184;DHT22;7693;49.266;7.104;2024-03-06T20:49:01;7.50;99.90
15184;DHT22;7693;49.266;7.104;2024-03-06T20:51:27;7.50;99.90
15184;DHT22;7693;49.266;7.104;2024-03-06T20:53:53;7.50;99.90
15184;DHT22;7693;49.266;7.104;2024-03-06T20:56:18;7.50;99.90
15184;DHT22;7693;49.266;7.104;2024-03-06T20:58:44;7.50;99.90
15184;DHT22;7693;49.266;7.104;2024-03-06T21:01:10;7.50;99.90
15184;DHT22;7693;49.266;7.104;2024-03-06T21:03:36;7.50;99.90
15184;DHT22;7693;49.266;7.104;2024-03-06T21:06:04;7.50;99.90
15184;DHT22;7693;49.266;7.104;2024-03-06T21:08:30;7.50;99.90
15184;DHT22;7693;49.266;7.104;2024-03-06T21:10:55;7.50;99.90
15184;DHT22;7693;49.266;7.104;2024-03-06T21:13:23;7.50;99.90
15184;DHT22;7693;49.266;7.104;2024-03-06T21:15:51;7.50;99.90
15184;DHT22;7693;49.266;7.104;2024-03-06T21:18:17;7.50;99.90
15184;DHT22;7693;49.266;7.104;2024-03-06T21:20:42;7.50;99.90
15184;DHT22;7693;49.266;7.104;2024-03-06T21:23:09;7.50;99.90
15184;DHT22;7693;49.266;7.104;2024-03-06T21:25:34;7.50;99.90
15184;DHT22;7693;49.266;7.104;2024-03-06T21:28:00;7.50;99.90
15184;DHT22;7693;49.266;7.104;2024-03-06T21:30:28;7.50;99.90
15184;DHT22;7693;49.266;7.104;2024-03-06T21:32:53;7.40;99.90
15184;DHT22;7693;49.266;7.104;2024-03-06T21:35:19;7.40;99.90
15184;DHT22;7693;49.266;7.104;2024-03-06T21:37:46;7.50;99.90
15184;DHT22;7693;49.266;7.104;2024-03-06T21:40:13;7.50;99.90
15184;DHT22;7693;49.266;7.104;2024-03-06T21:42:40;7.50;99.90
15184;DHT22;7693;49.266;7.104;2024-03-06T21:45:06;7.50;99.90
15184;DHT22;7693;49.266;7.104;2024-03-06T21:47:34;7.50;99.90
15184;DHT22;7693;49.266;7.104;2024-03-06T21:50:00;7.50;99.90
15184;DHT22;7693;49.266;7.104;2024-03-06T21:52:25;7.50;99.90
15184;DHT22;7693;49.266;7.104;2024-03-06T21:54:52;7.50;99.90
15184;DHT22;7693;49.266;7.104;2024-03-06T21:57:18;7.50;99.90
15184;DHT22;7693;49.266;7.104;2024-03-06T21:59:44;7.50;99.90
15184;DHT22;7693;49.266;7.104;2024-03-06T22:02:09;7.50;99.90
15184;DHT22;7693;49.266;7.104;2024-03-06T22:04:38;7.50;99.90
15184;DHT22;7693;49.266;7.104;2024-03-06T22:07:04;7.50;99.90
15184;DHT22;7693;49.266;7.104;2024-03-06T22:09:30;7.50;99.90
15184;DHT22;7693;49.266;7.104;2024-03-06T22:11:56;7.50;99.90
15184;DHT22;7693;49.266;7.104;2024-03-06T22:14:23;7.50;99.90
15184;DHT22;7693;49.266;7.104;2024-03-06T22:16:49;7.50;99.90
15184;DHT22;7693;49.266;7.104;2024-03-06T22:19:14;7.50;99.90
15184;DHT22;7693;49.266;7.104;2024-03-06T22:21:40;7.50;99.90
15184;DHT22;7693;49.266;7.104;2024-03-06T22:24:07;7.50;99.90
15184;DHT22;7693;49.266;7.104;2024-03-06T22:26:33;7.50;99.90
15184;DHT22;7693;49.266;7.104;2024-03-06T22:28:58;7.50;99.90
15184;DHT22;7693;49.266;7.104;2024-03-06T22:31:24;7.50;99.90
15184;DHT22;7693;49.266;7.104;2024-03-06T22:33:53;7.50;99.90
15184;DHT22;7693;49.266;7.104;2024-03-06T22:36:18;7.50;99.90
15184;DHT22;7693;49.266;7.104;2024-03-06T22:38:45;7.50;99.90
15184;DHT22;7693;49.266;7.104;2024-03-06T22:41:20;7.50;99.90
15184;DHT22;7693;49.266;7.104;2024-03-06T22:43:47;7.50;99.90
15184;DHT22;7693;49.266;7.104;2024-03-06T22:46:12;7.50;99.90
15184;DHT22;7693;49.266;7.104;2024-03-06T22:48:38;7.50;99.90
15184;DHT22;7693;49.266;7.104;2024-03-06T22:51:05;7.50;99.90
15184;DHT22;7693;49.266;7.104;2024-03-06T22:53:31;7.50;99.90
15184;DHT22;7693;49.266;7.104;2024-03-06T22:55:56;7.50;99.90
15184;DHT22;7693;49.266;7.104;2024-03-06T22:58:22;7.50;99.90
15184;DHT22;7693;49.266;7.104;2024-03-06T23:00:48;7.50;99.90
15184;DHT22;7693;49.266;7.104;2024-03-06T23:03:16;7.50;99.90
15184;DHT22;7693;49.266;7.104;2024-03-06T23:05:43;7.50;99.90
15184;DHT22;7693;49.266;7.104;2024-03-06T23:08:08;7.50;99.90
15184;DHT22;7693;49.266;7.104;2024-03-06T23:10:37;7.50;99.90
15184;DHT22;7693;49.266;7.104;2024-03-06T23:13:02;7.50;99.90
15184;DHT22;7693;49.266;7.104;2024-03-06T23:15:30;7.50;99.90
15184;DHT22;7693;49.266;7.104;2024-03-06T23:17:56;7.50;99.90
15184;DHT22;7693;49.266;7.104;2024-03-06T23:20:21;7.50;99.90
15184;DHT22;7693;49.266;7.104;2024-03-06T23:22:47;7.50;99.90
